createdAt,value
2018-04-26T00:00:42.506Z,2.03
2018-04-26T00:03:10.165Z,1.70
2018-04-26T00:05:37.808Z,1.70
2018-04-26T00:08:05.512Z,2.00
2018-04-26T00:10:33.141Z,2.00
2018-04-26T00:13:00.802Z,1.90
2018-04-26T00:15:28.603Z,2.35
2018-04-26T00:17:56.253Z,1.95
2018-04-26T00:20:23.902Z,1.95
2018-04-26T00:22:52.580Z,2.17
2018-04-26T00:25:21.015Z,2.30
2018-04-26T00:27:48.676Z,2.25
2018-04-26T00:30:16.304Z,1.73
2018-04-26T00:32:43.938Z,2.10
2018-04-26T00:35:11.599Z,2.05
2018-04-26T00:37:39.548Z,2.30
2018-04-26T00:40:07.410Z,2.40
2018-04-26T00:42:35.020Z,2.20
2018-04-26T00:45:02.695Z,2.30
2018-04-26T00:47:31.464Z,1.92
2018-04-26T00:49:59.121Z,2.40
2018-04-26T00:52:26.754Z,2.62
2018-04-26T00:54:54.407Z,2.30
2018-04-26T00:57:22.814Z,2.20
2018-04-26T00:59:50.721Z,2.00
2018-04-26T01:02:18.397Z,2.30
2018-04-26T01:04:46.037Z,2.28
2018-04-26T01:07:13.647Z,2.40
2018-04-26T01:09:42.104Z,2.60
2018-04-26T01:12:09.795Z,2.45
2018-04-26T01:14:38.323Z,2.15
2018-04-26T01:17:06.757Z,2.22
2018-04-26T01:19:34.432Z,2.17
2018-04-26T01:22:02.940Z,2.28
2018-04-26T01:24:31.335Z,2.60
2018-04-26T01:26:59.750Z,2.10
2018-04-26T01:29:28.646Z,2.80
2018-04-26T01:31:57.101Z,2.50
2018-04-26T01:34:24.704Z,2.87
2018-04-26T01:37:04.314Z,2.40
2018-04-26T01:39:31.951Z,2.75
2018-04-26T01:42:00.380Z,2.47
2018-04-26T01:44:28.884Z,2.62
2018-04-26T01:46:56.535Z,2.90
2018-04-26T01:49:24.175Z,2.62
2018-04-26T01:51:51.839Z,2.95
2018-04-26T01:54:19.477Z,2.43
2018-04-26T01:56:47.150Z,2.35
2018-04-26T01:59:14.804Z,2.00
2018-04-26T02:01:42.627Z,2.58
2018-04-26T02:04:10.711Z,2.45
2018-04-26T02:06:38.652Z,2.80
2018-04-26T02:09:06.357Z,2.80
2018-04-26T02:11:33.952Z,2.53
2018-04-26T02:14:01.598Z,2.53
2018-04-26T02:16:30.070Z,2.85
2018-04-26T02:18:57.711Z,3.03
2018-04-26T02:21:25.345Z,2.80
2018-04-26T02:23:52.980Z,3.10
2018-04-26T02:26:21.685Z,2.87
2018-04-26T02:28:49.301Z,3.00
2018-04-26T02:31:18.029Z,3.20
2018-04-26T02:33:45.700Z,2.87
2018-04-26T02:36:13.392Z,3.20
2018-04-26T02:38:41.066Z,3.03
2018-04-26T02:41:08.699Z,3.00
2018-04-26T02:43:36.388Z,3.30
2018-04-26T02:46:04.123Z,3.20
2018-04-26T02:48:31.851Z,3.20
2018-04-26T02:50:59.526Z,3.05
2018-04-26T02:53:27.162Z,3.17
2018-04-26T02:55:54.827Z,3.20
2018-04-26T02:58:22.518Z,3.60
2018-04-26T03:00:50.898Z,3.20
2018-04-26T03:03:18.572Z,3.50
2018-04-26T03:05:46.999Z,3.33
2018-04-26T03:08:14.667Z,3.50
2018-04-26T03:10:42.353Z,3.25
2018-04-26T03:13:10.772Z,3.47
2018-04-26T03:15:39.203Z,3.20
2018-04-26T03:18:06.857Z,3.13
2018-04-26T03:20:34.535Z,3.40
2018-04-26T03:23:02.160Z,3.28
2018-04-26T03:25:30.619Z,4.00
2018-04-26T03:27:58.955Z,3.62
2018-04-26T03:30:26.582Z,3.58
2018-04-26T03:32:54.317Z,3.80
2018-04-26T03:35:21.980Z,3.58
2018-04-26T03:37:49.656Z,3.70
2018-04-26T03:40:17.385Z,3.40
2018-04-26T03:42:45.089Z,3.58
2018-04-26T03:45:13.621Z,3.70
2018-04-26T03:47:42.072Z,3.17
2018-04-26T03:50:09.722Z,3.87
2018-04-26T03:52:37.380Z,3.83
2018-04-26T03:55:05.377Z,3.40
2018-04-26T03:57:32.998Z,3.58
2018-04-26T04:00:12.454Z,4.07
2018-04-26T04:02:51.828Z,4.17
2018-04-26T04:05:32.446Z,3.97
2018-04-26T04:08:00.092Z,4.40
2018-04-26T04:10:27.740Z,3.63
2018-04-26T04:12:56.164Z,4.10
2018-04-26T04:15:23.814Z,4.15
2018-04-26T04:17:51.491Z,3.80
2018-04-26T04:20:19.140Z,3.80
2018-04-26T04:22:47.737Z,4.05
2018-04-26T04:25:16.117Z,4.00
2018-04-26T04:27:44.417Z,4.18
2018-04-26T04:30:13.280Z,3.78
2018-04-26T04:32:40.934Z,3.67
2018-04-26T04:35:09.377Z,3.75
2018-04-26T04:37:37.000Z,3.90
2018-04-26T04:40:04.689Z,4.07
2018-04-26T04:42:32.381Z,3.95
2018-04-26T04:45:01.641Z,4.03
2018-04-26T04:47:30.799Z,3.80
2018-04-26T04:49:58.464Z,3.80
2018-04-26T04:52:26.141Z,4.20
2018-04-26T04:54:53.756Z,3.70
2018-04-26T04:57:21.412Z,3.62
2018-04-26T04:59:49.794Z,3.95
2018-04-26T05:02:17.467Z,3.70
2018-04-26T05:04:45.130Z,3.83
2018-04-26T05:07:12.761Z,3.70
2018-04-26T05:09:41.823Z,4.23
2018-04-26T05:12:09.455Z,3.40
2018-04-26T05:14:37.103Z,3.90
2018-04-26T05:17:05.615Z,4.10
2018-04-26T05:19:33.528Z,3.97
2018-04-26T05:22:01.202Z,4.00
2018-04-26T05:24:29.197Z,4.10
2018-04-26T05:26:56.863Z,3.70
2018-04-26T05:29:24.513Z,3.95
2018-04-26T05:31:52.168Z,3.70
2018-04-26T05:34:20.252Z,3.42
2018-04-26T05:36:47.938Z,3.75
2018-04-26T05:39:15.563Z,3.67
2018-04-26T05:41:43.239Z,3.67
2018-04-26T05:44:10.888Z,3.60
2018-04-26T05:46:38.523Z,3.65
2018-04-26T05:49:07.850Z,3.70
2018-04-26T05:51:35.475Z,3.70
2018-04-26T05:54:03.703Z,3.15
2018-04-26T05:56:32.240Z,3.50
2018-04-26T05:58:59.979Z,3.80
2018-04-26T06:01:27.594Z,3.72
2018-04-26T06:03:56.364Z,3.37
2018-04-26T06:06:24.047Z,3.17
2018-04-26T06:08:51.707Z,3.33
2018-04-26T06:11:19.431Z,3.47
2018-04-26T06:13:47.133Z,3.45
2018-04-26T06:16:14.803Z,3.60
2018-04-26T06:18:42.452Z,3.53
2018-04-26T06:21:10.123Z,3.22
2018-04-26T06:23:38.544Z,3.92
2018-04-26T06:26:06.980Z,3.67
2018-04-26T06:28:34.859Z,3.67
2018-04-26T06:31:02.564Z,3.90
2018-04-26T06:33:30.267Z,3.80
2018-04-26T06:35:58.015Z,3.67
2018-04-26T06:38:26.450Z,3.80
2018-04-26T06:40:54.103Z,4.00
2018-04-26T06:43:21.741Z,3.90
2018-04-26T06:45:49.410Z,3.63
2018-04-26T06:48:17.275Z,3.92
2018-04-26T06:50:44.933Z,3.95
2018-04-26T06:53:13.546Z,3.70
2018-04-26T06:55:42.413Z,3.65
2018-04-26T06:58:10.050Z,3.80
2018-04-26T07:00:38.532Z,3.90
2018-04-26T07:03:06.214Z,3.45
2018-04-26T07:05:33.876Z,4.03
2018-04-26T07:08:01.574Z,3.80
2018-04-26T07:10:29.257Z,3.95
2018-04-26T07:12:56.908Z,3.60
2018-04-26T07:15:24.516Z,4.10
2018-04-26T07:17:52.657Z,4.00
2018-04-26T07:20:21.532Z,3.40
2018-04-26T07:22:49.199Z,3.65
2018-04-26T07:25:16.808Z,3.55
2018-04-26T07:27:44.455Z,3.67
2018-04-26T07:30:12.879Z,3.70
2018-04-26T07:32:40.564Z,3.58
2018-04-26T07:35:08.303Z,3.60
2018-04-26T07:37:35.988Z,3.35
2018-04-26T07:40:04.200Z,3.58
2018-04-26T07:42:32.601Z,3.65
2018-04-26T07:45:01.114Z,3.40
2018-04-26T07:47:28.769Z,3.58
2018-04-26T07:49:56.511Z,3.15
2018-04-26T07:52:24.168Z,3.40
2018-04-26T07:54:51.827Z,2.95
2018-04-26T07:57:20.304Z,3.30
2018-04-26T07:59:47.969Z,3.17
2018-04-26T08:02:15.638Z,3.53
2018-04-26T08:04:43.302Z,3.50
2018-04-26T08:07:11.567Z,3.53
2018-04-26T08:09:39.260Z,2.92
2018-04-26T08:12:07.897Z,3.50
2018-04-26T08:14:35.574Z,3.30
2018-04-26T08:17:03.600Z,3.33
2018-04-26T08:19:31.343Z,3.62
2018-04-26T08:21:59.510Z,3.35
2018-04-26T08:24:27.196Z,3.30
2018-04-26T08:26:54.826Z,3.95
2018-04-26T08:29:22.544Z,3.45
2018-04-26T08:31:51.198Z,3.90
2018-04-26T08:34:18.850Z,3.78
2018-04-26T08:36:46.571Z,3.62
2018-04-26T08:39:14.365Z,3.30
2018-04-26T08:41:42.004Z,3.60
2018-04-26T08:44:09.663Z,3.28
2018-04-26T08:46:38.160Z,2.97
2018-04-26T08:49:07.271Z,3.37
2018-04-26T08:51:34.927Z,3.12
2018-04-26T08:54:03.354Z,3.30
2018-04-26T08:56:31.067Z,2.97
2018-04-26T08:58:59.858Z,2.37
2018-04-26T09:01:27.487Z,2.05
2018-04-26T09:03:55.333Z,2.12
2018-04-26T09:06:23.738Z,2.00
2018-04-26T09:08:51.417Z,2.20
2018-04-26T09:11:19.183Z,2.30
2018-04-26T09:13:47.768Z,2.35
2018-04-26T09:16:15.380Z,2.72
2018-04-26T09:18:43.063Z,2.70
2018-04-26T09:21:10.729Z,2.10
2018-04-26T09:23:39.271Z,2.40
2018-04-26T09:26:06.997Z,2.10
2018-04-26T09:28:36.155Z,2.10
2018-04-26T09:31:03.840Z,2.00
2018-04-26T09:33:31.499Z,1.90
2018-04-26T09:35:59.193Z,1.42
2018-04-26T09:38:27.662Z,1.33
2018-04-26T09:40:57.859Z,1.12
2018-04-26T09:43:25.522Z,0.90
2018-04-26T09:45:53.135Z,0.98
2018-04-26T09:48:20.824Z,0.85
2018-04-26T09:50:48.460Z,0.80
2018-04-26T09:53:16.096Z,1.00
2018-04-26T09:55:43.784Z,1.00
2018-04-26T09:58:11.930Z,0.90
2018-04-26T10:00:43.689Z,0.90
2018-04-26T10:03:11.371Z,0.98
2018-04-26T10:05:41.981Z,0.80
2018-04-26T10:08:09.654Z,0.90
2018-04-26T10:10:38.192Z,0.93
2018-04-26T10:13:05.857Z,0.98
2018-04-26T10:15:33.500Z,1.27
2018-04-26T10:18:01.913Z,1.10
2018-04-26T10:20:29.628Z,1.17
2018-04-26T10:22:57.280Z,1.20
2018-04-26T10:25:24.903Z,1.20
2018-04-26T10:27:53.371Z,1.00
2018-04-26T10:30:21.024Z,1.10
2018-04-26T10:32:48.742Z,1.10
2018-04-26T10:35:16.475Z,1.30
2018-04-26T10:37:44.363Z,1.37
2018-04-26T10:40:12.298Z,1.50
2018-04-26T10:42:39.957Z,1.37
2018-04-26T10:45:07.609Z,1.20
2018-04-26T10:47:36.405Z,1.40
2018-04-26T10:50:04.080Z,1.30
2018-04-26T10:52:31.722Z,1.48
2018-04-26T10:55:00.897Z,1.25
2018-04-26T10:57:28.813Z,1.10
2018-04-26T10:59:56.479Z,1.20
2018-04-26T11:02:24.109Z,1.10
2018-04-26T11:04:52.488Z,1.10
2018-04-26T11:07:20.128Z,0.82
2018-04-26T11:09:48.063Z,1.10
2018-04-26T11:12:16.579Z,0.88
2018-04-26T11:14:44.214Z,1.00
2018-04-26T11:17:11.951Z,0.88
2018-04-26T11:19:39.605Z,1.00
2018-04-26T11:22:07.248Z,0.90
2018-04-26T11:24:34.897Z,1.10
2018-04-26T11:27:02.552Z,0.80
2018-04-26T11:29:30.196Z,0.90
2018-04-26T11:31:57.915Z,0.77
2018-04-26T11:34:25.585Z,0.80
2018-04-26T11:36:53.536Z,0.90
2018-04-26T11:39:21.217Z,0.90
2018-04-26T11:41:48.906Z,0.90
2018-04-26T11:44:16.819Z,0.67
2018-04-26T11:46:44.477Z,0.70
2018-04-26T11:49:12.118Z,0.75
2018-04-26T11:51:39.801Z,0.60
2018-04-26T11:54:08.745Z,0.60
2018-04-26T11:56:36.411Z,0.60
2018-04-26T11:59:04.066Z,0.70
2018-04-26T12:01:31.740Z,0.80
2018-04-26T12:03:59.383Z,0.60
2018-04-26T12:06:27.906Z,0.57
2018-04-26T12:08:55.562Z,0.65
2018-04-26T12:11:23.161Z,0.57
2018-04-26T12:13:50.895Z,0.60
2018-04-26T12:16:18.594Z,0.40
2018-04-26T12:18:46.228Z,0.60
2018-04-26T12:21:14.389Z,0.60
2018-04-26T12:23:42.789Z,0.50
2018-04-26T12:26:10.483Z,0.43
2018-04-26T12:28:38.106Z,0.45
2018-04-26T12:31:06.518Z,0.60
2018-04-26T12:33:34.156Z,0.60
2018-04-26T12:36:01.862Z,0.70
2018-04-26T12:38:29.547Z,0.50
2018-04-26T12:40:57.231Z,0.60
2018-04-26T12:43:25.517Z,0.50
2018-04-26T12:45:53.252Z,0.50
2018-04-26T12:48:21.057Z,0.60
2018-04-26T12:50:48.706Z,0.60
2018-04-26T12:53:18.553Z,0.50
2018-04-26T12:55:47.082Z,0.60
2018-04-26T12:58:14.788Z,0.52
2018-04-26T13:00:43.453Z,0.70
2018-04-26T13:03:11.087Z,0.70
2018-04-26T13:05:38.964Z,0.70
2018-04-26T13:08:06.624Z,0.70
2018-04-26T13:10:34.271Z,0.70
2018-04-26T13:13:03.487Z,0.60
2018-04-26T13:15:31.862Z,0.80
2018-04-26T13:17:59.540Z,0.60
2018-04-26T13:20:27.173Z,0.60
2018-04-26T13:22:56.288Z,0.80
2018-04-26T13:25:24.669Z,0.77
2018-04-26T13:27:53.991Z,0.60
2018-04-26T13:30:21.625Z,0.70
2018-04-26T13:32:49.310Z,0.70
2018-04-26T13:35:16.928Z,0.50
2018-04-26T13:37:45.307Z,0.70
2018-04-26T13:40:12.988Z,0.70
2018-04-26T13:42:41.062Z,0.70
2018-04-26T13:45:08.723Z,0.70
2018-04-26T13:47:37.281Z,0.60
2018-04-26T13:50:04.994Z,0.77
2018-04-26T13:52:33.412Z,0.70
2018-04-26T13:55:01.419Z,0.80
2018-04-26T13:57:29.056Z,0.77
2018-04-26T13:59:56.662Z,0.70
2018-04-26T14:02:24.343Z,0.70
2018-04-26T14:04:52.077Z,0.80
2018-04-26T14:07:20.706Z,0.60
2018-04-26T14:09:48.395Z,0.80
2018-04-26T14:12:16.843Z,0.80
2018-04-26T14:14:44.555Z,0.73
2018-04-26T14:17:12.917Z,0.88
2018-04-26T14:19:40.594Z,0.90
2018-04-26T14:22:08.308Z,0.80
2018-04-26T14:24:35.998Z,0.90
2018-04-26T14:27:03.761Z,0.90
2018-04-26T14:29:31.446Z,0.67
2018-04-26T14:32:00.130Z,0.90
2018-04-26T14:34:27.874Z,0.70
2018-04-26T14:36:55.553Z,0.57
2018-04-26T14:39:23.275Z,0.60
2018-04-26T14:41:51.686Z,0.77
2018-04-26T14:44:19.364Z,0.68
2018-04-26T14:46:47.023Z,0.60
2018-04-26T14:49:15.528Z,0.68
2018-04-26T14:51:43.166Z,0.50
2018-04-26T14:54:10.833Z,0.60
2018-04-26T14:56:38.500Z,0.60
2018-04-26T14:59:06.226Z,0.52
2018-04-26T15:01:33.897Z,0.50
2018-04-26T15:04:02.306Z,0.50
2018-04-26T15:06:30.006Z,0.50
2018-04-26T15:08:57.652Z,0.40
2018-04-26T15:11:25.654Z,0.47
2018-04-26T15:13:53.326Z,0.40
2018-04-26T15:16:20.993Z,0.40
2018-04-26T15:18:48.620Z,0.45
2018-04-26T15:21:16.282Z,0.40
2018-04-26T15:23:46.464Z,0.45
2018-04-26T15:26:14.949Z,0.47
2018-04-26T15:28:42.614Z,0.50
2018-04-26T15:31:10.275Z,0.50
2018-04-26T15:33:39.099Z,0.80
2018-04-26T15:36:07.019Z,0.50
2018-04-26T15:38:35.653Z,0.80
2018-04-26T15:41:04.572Z,0.60
2018-04-26T15:43:32.206Z,0.60
2018-04-26T15:46:01.094Z,0.60
2018-04-26T15:48:28.866Z,0.70
2018-04-26T15:50:56.604Z,0.80
2018-04-26T15:53:36.343Z,0.80
2018-04-26T15:56:17.140Z,0.70
2018-04-26T16:02:31.051Z,0.70
2018-04-26T16:05:16.504Z,0.83
2018-04-26T16:08:11.637Z,0.73
2018-04-26T16:10:57.759Z,0.75
2018-04-26T16:13:43.011Z,0.70
2018-04-26T16:16:28.394Z,0.80
2018-04-26T16:19:07.799Z,0.80
2018-04-26T16:21:47.283Z,0.70
2018-04-26T16:24:33.773Z,1.02
2018-04-26T16:30:43.953Z,0.90
2018-04-26T16:33:23.406Z,0.80
2018-04-26T16:36:03.784Z,0.70
2018-04-26T16:38:44.150Z,0.80
2018-04-26T16:41:12.786Z,0.80
2018-04-26T16:43:40.736Z,0.85
2018-04-26T16:46:09.241Z,0.85
2018-04-26T16:48:36.980Z,0.90
2018-04-26T16:51:04.705Z,0.90
2018-04-26T16:53:32.581Z,1.30
2018-04-26T16:56:01.190Z,0.95
2018-04-26T16:58:29.621Z,0.90
2018-04-26T17:00:57.805Z,0.90
2018-04-26T17:03:26.327Z,0.80
2018-04-26T17:05:54.781Z,1.30
2018-04-26T17:08:22.417Z,1.10
2018-04-26T17:10:50.093Z,1.00
2018-04-26T17:13:18.105Z,0.90
2018-04-26T17:15:45.762Z,1.00
2018-04-26T17:18:15.035Z,1.05
2018-04-26T17:20:42.956Z,0.95
2018-04-26T17:23:11.434Z,1.00
2018-04-26T17:25:39.096Z,0.82
2018-04-26T17:28:06.918Z,1.00
2018-04-26T17:30:34.457Z,0.90
2018-04-26T17:33:02.949Z,1.00
2018-04-26T17:35:30.694Z,0.95
2018-04-26T17:37:59.056Z,0.90
2018-04-26T17:40:26.710Z,1.00
2018-04-26T17:42:54.339Z,1.00
2018-04-26T17:45:23.706Z,0.80
2018-04-26T17:47:51.540Z,1.20
2018-04-26T17:50:19.777Z,1.00
2018-04-26T17:52:47.547Z,1.10
2018-04-26T17:55:16.820Z,1.17
2018-04-26T17:57:44.482Z,1.20
2018-04-26T18:00:13.055Z,1.17
2018-04-26T18:02:41.405Z,1.10
2018-04-26T18:05:10.501Z,1.10
2018-04-26T18:07:39.208Z,1.17
2018-04-26T18:10:06.927Z,1.40
2018-04-26T18:12:34.595Z,1.40
2018-04-26T18:15:02.258Z,1.20
2018-04-26T18:17:29.976Z,1.20
2018-04-26T18:20:08.147Z,1.40
2018-04-26T18:22:25.347Z,1.12
2018-04-26T18:24:53.867Z,1.20
2018-04-26T18:27:21.486Z,1.40
2018-04-26T18:29:49.607Z,1.40
2018-04-26T18:32:17.317Z,1.30
2018-04-26T18:34:44.968Z,1.10
2018-04-26T18:37:13.432Z,1.20
2018-04-26T18:39:41.416Z,1.20
2018-04-26T18:42:10.126Z,1.30
2018-04-26T18:44:38.914Z,1.30
2018-04-26T18:47:06.568Z,1.27
2018-04-26T18:49:35.335Z,1.20
2018-04-26T18:52:03.062Z,1.20
2018-04-26T18:54:30.701Z,1.20
2018-04-26T18:56:59.172Z,1.30
2018-04-26T18:59:26.769Z,1.50
2018-04-26T19:01:55.213Z,1.40
2018-04-26T19:04:22.898Z,1.50
2018-04-26T19:06:50.565Z,1.58
2018-04-26T19:09:18.227Z,1.70
2018-04-26T19:11:45.932Z,1.50
2018-04-26T19:14:15.349Z,1.40
2018-04-26T19:16:42.986Z,1.55
2018-04-26T19:19:10.630Z,1.43
2018-04-26T19:21:38.369Z,1.52
2018-04-26T19:24:06.033Z,1.48
2018-04-26T19:26:33.665Z,1.80
2018-04-26T19:29:01.700Z,1.40
2018-04-26T19:31:29.354Z,1.77
2018-04-26T19:33:57.396Z,1.42
2018-04-26T19:36:25.771Z,1.40
2018-04-26T19:38:54.435Z,1.60
2018-04-26T19:41:22.490Z,1.50
2018-04-26T19:43:50.141Z,1.70
2018-04-26T19:46:17.944Z,1.65
2018-04-26T19:48:45.593Z,1.80
2018-04-26T19:51:13.256Z,1.70
2018-04-26T19:53:40.912Z,1.50
2018-04-26T19:56:08.531Z,1.42
2018-04-26T19:58:36.158Z,1.50
2018-04-26T20:01:04.020Z,1.30
2018-04-26T20:03:32.008Z,1.45
2018-04-26T20:05:59.638Z,1.52
2018-04-26T20:08:29.446Z,1.75
2018-04-26T20:10:57.385Z,1.70
2018-04-26T20:13:25.177Z,1.50
2018-04-26T20:15:53.657Z,1.60
2018-04-26T20:18:22.112Z,1.65
2018-04-26T20:20:50.719Z,2.08
2018-04-26T20:23:18.438Z,1.90
2018-04-26T20:25:49.267Z,2.28
2018-04-26T20:28:17.288Z,1.50
2018-04-26T20:30:44.900Z,1.65
2018-04-26T20:33:12.517Z,1.90
2018-04-26T20:35:40.870Z,1.52
2018-04-26T20:38:10.713Z,1.95
2018-04-26T20:40:38.365Z,1.50
2018-04-26T20:43:06.028Z,1.90
2018-04-26T20:45:33.688Z,1.80
2018-04-26T20:48:02.985Z,1.80
2018-04-26T20:50:30.624Z,1.95
2018-04-26T20:52:59.069Z,1.95
2018-04-26T20:55:26.719Z,1.90
2018-04-26T20:57:54.376Z,1.48
2018-04-26T21:00:22.056Z,1.60
2018-04-26T21:02:49.722Z,1.65
2018-04-26T21:05:17.439Z,1.80
2018-04-26T21:07:45.920Z,1.70
2018-04-26T21:10:13.529Z,1.65
2018-04-26T21:12:41.168Z,2.05
2018-04-26T21:15:09.617Z,1.73
2018-04-26T21:17:37.584Z,1.83
2018-04-26T21:20:05.242Z,1.50
2018-04-26T21:22:33.205Z,1.95
2018-04-26T21:25:00.865Z,1.80
2018-04-26T21:27:28.492Z,1.60
2018-04-26T21:29:56.917Z,1.75
2018-04-26T21:32:26.016Z,1.65
2018-04-26T21:34:54.016Z,1.87
2018-04-26T21:37:21.629Z,1.65
2018-04-26T21:39:50.061Z,2.00
2018-04-26T21:42:17.752Z,1.80
2018-04-26T21:44:45.517Z,1.90
2018-04-26T21:47:13.849Z,1.90
2018-04-26T21:49:41.749Z,2.17
2018-04-26T21:52:15.049Z,1.90
2018-04-26T21:54:48.527Z,2.10
2018-04-26T21:57:21.803Z,1.65
2018-04-26T21:59:55.096Z,1.92
2018-04-26T22:02:22.981Z,2.08
2018-04-26T22:05:01.836Z,1.83
2018-04-26T22:07:30.187Z,1.85
2018-04-26T22:09:57.842Z,2.00
2018-04-26T22:12:25.558Z,1.80
2018-04-26T22:14:53.179Z,1.73
2018-04-26T22:17:21.925Z,1.87
2018-04-26T22:19:49.988Z,1.87
2018-04-26T22:22:17.654Z,1.80
2018-04-26T22:24:45.278Z,1.80
2018-04-26T22:27:13.933Z,1.85
2018-04-26T22:29:41.905Z,1.90
2018-04-26T22:32:09.530Z,1.70
2018-04-26T22:34:38.935Z,1.80
2018-04-26T22:37:07.219Z,1.87
2018-04-26T22:39:35.460Z,2.30
2018-04-26T22:42:03.353Z,2.00
2018-04-26T22:44:31.052Z,2.20
2018-04-26T22:46:58.732Z,1.80
2018-04-26T22:49:26.361Z,2.03
2018-04-26T22:51:54.023Z,1.98
2018-04-26T22:54:22.379Z,1.77
2018-04-26T22:56:50.809Z,2.08
2018-04-26T22:59:19.236Z,2.33
2018-04-26T23:01:46.929Z,2.08
2018-04-26T23:04:15.398Z,2.10
2018-04-26T23:06:43.754Z,1.98
2018-04-26T23:09:12.165Z,2.40
2018-04-26T23:11:40.292Z,2.33
2018-04-26T23:14:08.181Z,2.28
2018-04-26T23:16:36.458Z,2.15
2018-04-26T23:19:05.249Z,2.20
2018-04-26T23:21:32.900Z,2.40
2018-04-26T23:24:00.591Z,2.40
2018-04-26T23:26:28.250Z,2.03
2018-04-26T23:28:55.894Z,2.30
2018-04-26T23:31:23.601Z,2.05
2018-04-26T23:33:51.226Z,2.40
2018-04-26T23:36:18.868Z,2.30
2018-04-26T23:38:46.476Z,2.58
2018-04-26T23:41:15.577Z,1.98
2018-04-26T23:43:44.049Z,2.40
2018-04-26T23:46:11.734Z,2.60
2018-04-26T23:48:39.695Z,2.50
2018-04-26T23:51:07.393Z,2.80
2018-04-26T23:53:35.341Z,2.23
2018-04-26T23:56:02.956Z,2.40
2018-04-26T23:58:31.383Z,2.30
